Time;durP1;ratioP1;P1;durP2;ratioP2;P2;SDS_P1;SDS_P2;PMS_P1;PMS_P2;Temp;Humidity;BMP_temperature;BMP_pressure;BME280_temperature;BME280_humidity;BME280_pressure;Samples;Min_cycle;Max_cycle;Signal;HPM_P1;HPM_P2
2023/04/25 00:02:04;;;;;;;4.30;3.90;;;3.70;96.30;;;;;;5071204;28;20161;-56
2023/04/25 00:04:29;;;;;;;4.78;3.80;;;3.80;96.20;;;;;;5070975;28;20063;-57
2023/04/25 00:06:55;;;;;;;4.65;4.32;;;3.90;96.60;;;;;;5073209;28;20147;-56
2023/04/25 00:09:22;;;;;;;6.18;4.03;;;3.90;96.10;;;;;;5074564;28;20024;-58
2023/04/25 00:11:48;;;;;;;4.97;4.22;;;3.90;96.10;;;;;;5074977;28;20438;-55
2023/04/25 00:14:13;;;;;;;3.78;3.47;;;3.90;95.20;;;;;;5074610;28;20035;-57
2023/04/25 00:16:41;;;;;;;5.90;3.80;;;3.90;95.70;;;;;;5073369;28;20029;-54
2023/04/25 00:19:07;;;;;;;4.05;3.75;;;4.00;95.70;;;;;;5074537;28;20023;-56
2023/04/25 00:21:33;;;;;;;3.70;3.40;;;4.00;95.40;;;;;;5074553;28;20028;-54
2023/04/25 00:23:58;;;;;;;4.07;3.78;;;4.00;95.70;;;;;;5074390;28;20032;-56
2023/04/25 00:26:24;;;;;;;7.15;4.63;;;4.10;96.30;;;;;;5074122;28;20116;-59
2023/04/25 00:28:50;;;;;;;4.18;3.70;;;4.10;96.20;;;;;;5073875;28;20103;-57
2023/04/25 00:31:16;;;;;;;8.30;4.60;;;4.20;96.70;;;;;;5073588;28;20120;-58
2023/04/25 00:33:41;;;;;;;4.35;3.95;;;4.20;96.40;;;;;;5073855;28;20108;-57
2023/04/25 00:36:07;;;;;;;4.90;4.45;;;4.20;96.50;;;;;;5074217;28;20039;-59
2023/04/25 00:38:33;;;;;;;4.63;4.22;;;4.20;96.70;;;;;;5074210;28;20029;-56
2023/04/25 00:40:59;;;;;;;4.13;3.83;;;4.20;96.50;;;;;;5074263;28;20039;-58
2023/04/25 00:43:30;;;;;;;4.15;3.80;;;4.20;96.50;;;;;;5073989;28;20020;-58
2023/04/25 00:45:57;;;;;;;4.97;4.47;;;4.20;96.40;;;;;;5074245;28;20025;-58
2023/04/25 00:48:23;;;;;;;4.53;4.13;;;4.20;96.00;;;;;;5074057;28;20099;-56
2023/04/25 00:50:53;;;;;;;4.60;4.20;;;4.20;97.20;;;;;;5073815;28;20112;-57
2023/04/25 00:53:20;;;;;;;7.22;4.25;;;4.20;97.60;;;;;;5073852;28;20016;-57
2023/04/25 00:55:46;;;;;;;7.85;4.28;;;4.30;97.90;;;;;;5074213;28;20017;-58
2023/04/25 00:58:12;;;;;;;5.88;3.40;;;4.30;97.80;;;;;;5073815;28;20043;-58
2023/04/25 01:00:38;;;;;;;5.60;4.25;;;4.30;97.30;;;;;;5073831;28;20040;-57
2023/04/25 01:03:04;;;;;;;4.72;4.32;;;4.30;97.80;;;;;;5072510;28;20108;-55
2023/04/25 01:05:30;;;;;;;7.03;4.38;;;4.40;98.30;;;;;;5073421;28;20112;-58
2023/04/25 01:07:56;;;;;;;4.40;3.78;;;4.40;98.30;;;;;;5073983;28;20017;-57
2023/04/25 01:10:22;;;;;;;4.97;4.22;;;4.50;98.00;;;;;;5073627;28;20016;-57
2023/04/25 01:12:47;;;;;;;4.40;4.00;;;4.50;98.00;;;;;;5073665;28;20023;-58
2023/04/25 01:15:13;;;;;;;6.60;3.88;;;4.50;97.10;;;;;;5073466;28;20361;-56
2023/04/25 01:17:40;;;;;;;6.28;4.32;;;4.50;97.20;;;;;;5073138;28;20056;-57
2023/04/25 01:20:07;;;;;;;5.95;4.07;;;4.50;98.00;;;;;;5073545;28;20036;-58
2023/04/25 01:22:33;;;;;;;5.38;4.45;;;4.60;98.20;;;;;;5073295;28;20512;-57
2023/04/25 01:25:00;;;;;;;4.80;4.40;;;4.60;98.20;;;;;;5073337;28;20490;-57
2023/04/25 01:27:26;;;;;;;4.93;4.53;;;4.70;98.60;;;;;;5073164;28;20480;-57
2023/04/25 01:29:53;;;;;;;6.57;3.70;;;4.70;98.50;;;;;;5073435;28;20020;-57
2023/04/25 01:32:19;;;;;;;5.78;3.90;;;4.70;98.20;;;;;;5073142;28;20456;-56
2023/04/25 01:34:45;;;;;;;6.13;4.78;;;4.70;98.00;;;;;;5073160;28;20119;-58
2023/04/25 01:37:11;;;;;;;5.15;4.65;;;4.70;98.30;;;;;;5073380;28;20155;-58
2023/04/25 01:39:37;;;;;;;4.88;4.15;;;4.70;98.20;;;;;;5073070;28;20399;-57
2023/04/25 01:42:03;;;;;;;7.43;4.35;;;4.70;98.10;;;;;;5073107;28;20028;-58
2023/04/25 01:44:28;;;;;;;6.30;4.38;;;4.60;97.30;;;;;;5073001;28;20025;-58
2023/04/25 01:46:55;;;;;;;5.68;4.30;;;4.50;97.00;;;;;;5072923;28;20020;-54
2023/04/25 01:49:21;;;;;;;4.43;4.00;;;4.50;97.20;;;;;;5071467;28;20032;-57
2023/04/25 01:51:46;;;;;;;4.53;3.90;;;4.40;97.20;;;;;;5073021;28;20020;-57
2023/04/25 01:54:13;;;;;;;6.25;5.15;;;4.40;97.10;;;;;;5072805;28;20021;-56
2023/04/25 01:56:40;;;;;;;5.20;4.72;;;4.30;97.40;;;;;;5072896;28;20078;-59
2023/04/25 01:59:05;;;;;;;4.90;4.40;;;4.30;97.90;;;;;;5072531;28;20037;-56
2023/04/25 02:01:31;;;;;;;4.47;4.07;;;4.40;98.80;;;;;;5071281;28;20047;-55
2023/04/25 02:03:57;;;;;;;5.43;4.82;;;4.40;98.90;;;;;;5072595;28;20438;-55
2023/04/25 02:06:23;;;;;;;6.63;5.53;;;4.40;98.70;;;;;;5072350;28;20060;-55
2023/04/25 02:08:48;;;;;;;5.50;4.78;;;4.50;99.40;;;;;;5072530;28;20036;-57
2023/04/25 02:11:14;;;;;;;6.55;3.80;;;4.50;99.50;;;;;;5072379;28;20025;-55
2023/04/25 02:13:40;;;;;;;7.15;3.70;;;4.50;98.00;;;;;;5072556;28;20033;-55
2023/04/25 02:16:06;;;;;;;4.90;4.13;;;4.50;98.00;;;;;;5072402;28;20028;-55
2023/04/25 02:18:31;;;;;;;4.53;4.10;;;4.50;98.30;;;;;;5072140;28;20039;-58
2023/04/25 02:21:01;;;;;;;4.75;3.88;;;4.50;98.70;;;;;;5071145;28;20029;-58
2023/04/25 02:23:28;;;;;;;4.13;3.72;;;4.60;98.90;;;;;;5072207;28;20032;-56
2023/04/25 02:25:55;;;;;;;4.13;3.83;;;4.60;98.60;;;;;;5072348;28;20027;-57
2023/04/25 02:28:20;;;;;;;5.75;4.05;;;4.50;98.30;;;;;;5071826;28;20028;-54
2023/04/25 02:30:46;;;;;;;4.80;4.28;;;4.60;98.20;;;;;;5071988;28;20021;-58
2023/04/25 02:33:12;;;;;;;4.55;4.07;;;4.60;98.30;;;;;;5071953;28;20153;-57
2023/04/25 02:35:37;;;;;;;4.25;3.67;;;4.60;98.40;;;;;;5072323;28;20029;-58
2023/04/25 02:38:03;;;;;;;5.10;4.47;;;4.60;98.40;;;;;;5071929;28;20025;-56
2023/04/25 02:40:29;;;;;;;8.93;4.30;;;4.60;98.40;;;;;;5071849;28;20082;-57
2023/04/25 02:42:54;;;;;;;7.03;4.47;;;4.60;98.40;;;;;;5072140;28;20032;-58
2023/04/25 02:45:20;;;;;;;5.13;4.45;;;4.60;98.30;;;;;;5071776;28;20471;-58
2023/04/25 02:47:46;;;;;;;53.45;32.47;;;4.70;98.70;;;;;;5071760;28;20020;-56
2023/04/25 02:50:12;;;;;;;69.97;33.28;;;4.70;98.90;;;;;;5071690;28;20016;-58
2023/04/25 02:52:37;;;;;;;29.45;15.75;;;4.80;99.00;;;;;;5071885;28;20106;-56
2023/04/25 02:55:03;;;;;;;11.57;7.22;;;4.80;98.90;;;;;;5071935;28;20025;-55
2023/04/25 02:57:29;;;;;;;13.55;8.27;;;4.80;98.80;;;;;;5071740;28;20600;-56
2023/04/25 02:59:54;;;;;;;12.38;6.40;;;4.80;98.80;;;;;;5071545;28;20044;-58
2023/04/25 03:02:20;;;;;;;6.30;5.32;;;4.80;98.80;;;;;;5071587;28;20066;-55
2023/04/25 03:04:46;;;;;;;11.77;5.65;;;4.80;99.40;;;;;;5071776;28;20058;-57
2023/04/25 03:07:12;;;;;;;11.35;4.90;;;4.90;99.30;;;;;;5071450;28;20522;-56
2023/04/25 03:09:37;;;;;;;13.85;4.93;;;4.90;99.20;;;;;;5070454;28;20020;-57
2023/04/25 03:12:03;;;;;;;6.20;4.72;;;4.90;99.30;;;;;;5071720;28;20017;-56
2023/04/25 03:14:29;;;;;;;6.97;4.50;;;4.90;99.10;;;;;;5070217;28;20054;-57
2023/04/25 03:16:55;;;;;;;9.95;5.25;;;4.90;98.60;;;;;;5071450;28;20031;-57
2023/04/25 03:19:20;;;;;;;12.63;5.35;;;4.80;98.20;;;;;;5071286;28;20028;-58
2023/04/25 03:21:46;;;;;;;9.00;5.43;;;4.80;98.00;;;;;;5070022;28;20115;-57
2023/04/25 03:24:12;;;;;;;7.53;5.15;;;4.70;98.50;;;;;;5071527;28;20067;-58
2023/04/25 03:26:37;;;;;;;7.65;5.57;;;4.70;98.80;;;;;;5071387;28;20031;-54
2023/04/25 03:29:03;;;;;;;18.90;6.35;;;4.70;98.70;;;;;;5071342;28;20031;-58
2023/04/25 03:31:29;;;;;;;13.60;7.03;;;4.70;99.00;;;;;;5071183;28;20032;-55
2023/04/25 03:33:55;;;;;;;14.60;7.43;;;4.60;98.50;;;;;;5071459;28;20016;-55
2023/04/25 03:36:20;;;;;;;13.07;6.60;;;4.60;98.30;;;;;;5071262;28;20059;-56
2023/04/25 03:38:48;;;;;;;15.65;6.63;;;4.60;98.70;;;;;;5071329;28;20037;-57
2023/04/25 03:41:13;;;;;;;11.18;6.05;;;4.70;99.20;;;;;;5073810;28;20375;-57
2023/04/25 03:43:39;;;;;;;15.25;6.93;;;4.70;99.40;;;;;;5075282;28;20036;-55
2023/04/25 03:46:05;;;;;;;9.68;7.32;;;4.70;99.20;;;;;;5075257;28;20025;-53
2023/04/25 03:48:30;;;;;;;10.40;6.88;;;4.80;99.40;;;;;;5075346;28;20047;-55
2023/04/25 03:50:56;;;;;;;8.70;6.22;;;4.80;99.70;;;;;;5076041;28;20024;-56
2023/04/25 03:53:23;;;;;;;10.23;6.18;;;4.80;99.70;;;;;;5074904;28;20116;-58
2023/04/25 03:55:48;;;;;;;17.83;10.32;;;4.80;99.50;;;;;;5075202;28;20424;-55
2023/04/25 03:58:14;;;;;;;16.88;10.35;;;4.90;99.70;;;;;;5075034;28;20082;-55
2023/04/25 04:00:40;;;;;;;17.42;9.82;;;4.90;99.50;;;;;;5074790;28;20503;-57
2023/04/25 04:03:05;;;;;;;15.07;6.85;;;5.00;99.30;;;;;;5074945;28;20056;-54
2023/04/25 04:05:32;;;;;;;11.20;5.65;;;5.00;99.10;;;;;;5074800;28;20469;-56
2023/04/25 04:07:58;;;;;;;5.50;5.00;;;5.00;98.70;;;;;;5075522;28;20016;-58
2023/04/25 04:10:23;;;;;;;5.70;4.88;;;5.00;98.60;;;;;;5074734;28;20116;-57
2023/04/25 04:12:49;;;;;;;5.32;4.82;;;4.90;98.30;;;;;;5074736;28;20079;-55
2023/04/25 04:15:15;;;;;;;6.82;5.30;;;4.80;98.20;;;;;;5074436;28;20021;-53
2023/04/25 04:17:41;;;;;;;12.45;5.15;;;4.80;98.20;;;;;;5074792;28;20112;-58
2023/04/25 04:20:08;;;;;;;6.50;5.40;;;4.80;99.20;;;;;;5074670;28;20021;-54
2023/04/25 04:22:34;;;;;;;10.48;6.25;;;4.80;99.10;;;;;;5074677;28;20508;-56
2023/04/25 04:25:00;;;;;;;9.82;5.43;;;4.80;98.40;;;;;;5074514;28;20380;-58
2023/04/25 04:27:26;;;;;;;8.43;5.78;;;4.70;97.90;;;;;;5074527;28;20031;-57
2023/04/25 04:29:53;;;;;;;12.90;6.45;;;4.70;98.30;;;;;;5074497;28;20027;-54
2023/04/25 04:32:18;;;;;;;7.22;5.75;;;4.70;98.10;;;;;;5074342;28;20048;-58
2023/04/25 04:34:44;;;;;;;7.88;5.97;;;4.60;98.00;;;;;;5074378;28;20478;-58
2023/04/25 04:37:12;;;;;;;12.07;6.82;;;4.60;97.80;;;;;;5074347;28;20470;-58
2023/04/25 04:39:38;;;;;;;16.98;7.63;;;4.50;97.50;;;;;;5073155;28;20035;-57
2023/04/25 04:42:04;;;;;;;10.68;7.30;;;4.50;97.20;;;;;;5074014;28;20383;-57
2023/04/25 04:44:34;;;;;;;9.65;6.88;;;4.50;97.80;;;;;;5074084;28;20020;-57
2023/04/25 04:47:00;;;;;;;15.68;7.32;;;4.50;96.60;;;;;;5073994;28;20025;-53
2023/04/25 04:49:26;;;;;;;21.63;8.85;;;4.60;97.70;;;;;;5073946;28;20021;-56
2023/04/25 04:51:52;;;;;;;23.48;15.20;;;4.70;98.90;;;;;;5073017;28;20008;-58
2023/04/25 04:54:17;;;;;;;16.50;8.88;;;4.80;99.00;;;;;;5073926;28;20513;-58
2023/04/25 04:56:43;;;;;;;11.30;7.10;;;4.90;99.00;;;;;;5073893;28;20024;-57
2023/04/25 04:59:09;;;;;;;9.40;6.60;;;5.00;97.80;;;;;;5073776;28;20123;-58
2023/04/25 05:01:35;;;;;;;10.35;7.18;;;5.00;96.50;;;;;;5073812;28;20107;-57
2023/04/25 05:04:02;;;;;;;9.73;7.47;;;5.20;97.60;;;;;;5073721;28;20043;-58
2023/04/25 05:06:54;;;;;;;13.35;6.80;;;5.20;96.90;;;;;;5073726;28;20036;-53
2023/04/25 05:09:19;;;;;;;13.20;8.20;;;5.40;96.30;;;;;;5073853;28;20135;-55
2023/04/25 05:11:45;;;;;;;9.88;6.47;;;5.40;96.50;;;;;;5073661;28;20477;-58
2023/04/25 05:14:11;;;;;;;15.27;6.95;;;5.50;96.00;;;;;;5073101;28;20020;-57
2023/04/25 05:16:36;;;;;;;12.65;7.05;;;5.70;96.20;;;;;;5073495;28;20024;-56
2023/04/25 05:19:02;;;;;;;6.60;5.78;;;5.80;95.70;;;;;;5073685;28;20029;-57
2023/04/25 05:21:28;;;;;;;9.65;7.03;;;6.10;96.20;;;;;;5073540;28;20024;-56
2023/04/25 05:23:54;;;;;;;10.48;6.78;;;6.50;93.20;;;;;;5073456;28;20020;-54
2023/04/25 05:26:20;;;;;;;11.63;7.25;;;6.80;90.10;;;;;;5073054;28;20115;-55
2023/04/25 05:28:46;;;;;;;9.38;7.03;;;6.90;80.80;;;;;;5073355;28;20121;-56
2023/04/25 05:31:12;;;;;;;11.15;7.80;;;7.00;80.10;;;;;;5073242;28;20491;-55
2023/04/25 05:33:37;;;;;;;10.30;7.03;;;7.10;81.40;;;;;;5073414;28;20020;-57
2023/04/25 05:36:03;;;;;;;10.35;6.53;;;7.10;80.10;;;;;;5073166;28;20107;-55
2023/04/25 05:38:29;;;;;;;19.05;6.63;;;7.10;80.00;;;;;;5073272;28;20024;-57
2023/04/25 05:40:55;;;;;;;9.95;6.00;;;7.10;83.70;;;;;;5071670;28;20048;-57
2023/04/25 05:43:21;;;;;;;6.93;4.93;;;7.10;86.40;;;;;;5072835;28;20063;-58
2023/04/25 05:45:46;;;;;;;5.53;5.03;;;7.20;82.00;;;;;;5071539;28;20623;-56
2023/04/25 05:48:12;;;;;;;5.65;4.47;;;7.30;78.20;;;;;;5073003;28;20028;-58
2023/04/25 05:50:38;;;;;;;5.32;4.82;;;7.30;77.30;;;;;;5072855;28;20016;-56
2023/04/25 05:53:05;;;;;;;8.05;4.40;;;7.40;73.50;;;;;;5072835;28;20111;-59
2023/04/25 05:55:31;;;;;;;108.22;36.90;;;7.50;72.40;;;;;;5071615;28;20103;-58
2023/04/25 05:57:56;;;;;;;63.05;23.98;;;7.70;74.90;;;;;;5071662;28;20097;-59
2023/04/25 06:00:22;;;;;;;10.38;5.72;;;7.70;80.40;;;;;;5071474;28;20064;-58
2023/04/25 06:02:48;;;;;;;27.52;9.70;;;8.00;76.30;;;;;;5072020;28;20063;-59
2023/04/25 06:05:14;;;;;;;15.27;7.35;;;8.20;68.00;;;;;;5072290;28;20044;-58
2023/04/25 06:07:41;;;;;;;5.47;4.78;;;8.20;69.80;;;;;;5071597;28;20041;-58
2023/04/25 06:10:07;;;;;;;35.25;18.30;;;8.30;73.00;;;;;;5072088;28;20066;-58
2023/04/25 06:12:33;;;;;;;6.43;4.60;;;8.20;63.10;;;;;;5070699;28;20016;-58
2023/04/25 06:14:59;;;;;;;5.70;4.10;;;8.20;68.50;;;;;;5071945;28;20027;-59
2023/04/25 06:17:25;;;;;;;13.65;7.13;;;8.30;72.20;;;;;;5071947;28;20029;-57
2023/04/25 06:19:51;;;;;;;11.95;6.35;;;8.40;74.50;;;;;;5072163;28;20041;-58
2023/04/25 06:22:16;;;;;;;9.73;7.57;;;8.40;69.60;;;;;;5071808;28;20024;-56
2023/04/25 06:24:42;;;;;;;6.75;5.63;;;8.30;48.10;;;;;;5071989;28;20028;-58
2023/04/25 06:27:13;;;;;;;6.38;3.88;;;8.30;55.50;;;;;;5072252;28;20025;-59
2023/04/25 06:29:39;;;;;;;11.00;3.83;;;8.40;52.20;;;;;;5072512;28;20024;-57
2023/04/25 06:32:04;;;;;;;6.43;4.10;;;8.30;27.60;;;;;;5072149;28;20036;-57
2023/04/25 06:34:30;;;;;;;10.90;4.00;;;8.40;29.90;;;;;;5072056;28;20031;-54
2023/04/25 06:36:57;;;;;;;10.52;5.35;;;8.50;39.90;;;;;;5072144;28;20024;-57
2023/04/25 06:39:24;;;;;;;5.88;3.58;;;8.70;17.90;;;;;;5072402;28;20037;-58
2023/04/25 06:41:50;;;;;;;6.45;4.28;;;8.70;1.00;;;;;;5072077;28;20107;-54
2023/04/25 06:44:15;;;;;;;5.03;3.47;;;8.70;23.60;;;;;;5071846;28;20136;-57
2023/04/25 06:46:41;;;;;;;5.35;3.83;;;8.90;1.00;;;;;;5071504;28;20029;-58
2023/04/25 06:49:07;;;;;;;4.07;3.00;;;9.10;25.20;;;;;;5071751;28;20021;-56
2023/04/25 06:51:32;;;;;;;6.97;3.30;;;9.30;11.00;;;;;;5071521;28;20024;-54
2023/04/25 06:53:59;;;;;;;5.45;2.95;;;9.40;1.00;;;;;;5070083;28;20024;-56
2023/04/25 06:56:24;;;;;;;4.78;3.28;;;9.70;1.00;;;;;;5071417;28;20024;-55
2023/04/25 06:58:50;;;;;;;8.45;3.00;;;10.00;1.00;;;;;;5071584;28;20057;-58
2023/04/25 07:01:16;;;;;;;3.53;3.00;;;10.10;1.00;;;;;;5071663;28;20033;-58
2023/04/25 07:03:41;;;;;;;4.70;3.30;;;10.10;1.00;;;;;;5071733;28;20071;-57
2023/04/25 07:06:07;;;;;;;4.07;2.60;;;9.80;1.00;;;;;;5071409;28;20039;-55
2023/04/25 07:08:33;;;;;;;6.60;2.90;;;9.90;1.00;;;;;;5071091;28;20097;-54
2023/04/25 07:10:58;;;;;;;4.38;2.40;;;10.10;1.00;;;;;;5071473;28;20016;-56
2023/04/25 07:13:24;;;;;;;5.38;2.95;;;10.00;99.90;;;;;;5071600;28;20027;-58
2023/04/25 07:15:50;;;;;;;17.25;4.15;;;10.20;1.00;;;;;;5070996;28;20028;-54
2023/04/25 07:18:15;;;;;;;5.28;2.65;;;10.10;1.00;;;;;;5070124;28;20123;-55
2023/04/25 07:20:41;;;;;;;6.55;2.70;;;10.30;99.90;;;;;;5071431;28;20052;-56
2023/04/25 07:23:07;;;;;;;5.63;2.88;;;10.30;99.90;;;;;;5071604;28;20029;-57
2023/04/25 07:25:32;;;;;;;4.30;2.60;;;10.20;99.90;;;;;;5071317;28;20285;-56
2023/04/25 07:27:58;;;;;;;7.32;2.50;;;10.40;99.90;;;;;;5072048;28;20078;-55
2023/04/25 07:30:24;;;;;;;6.25;2.90;;;10.20;99.90;;;;;;5070811;28;20096;-50
2023/04/25 07:32:50;;;;;;;2.90;2.70;;;10.10;99.90;;;;;;5056949;28;20074;-49
2023/04/25 07:35:16;;;;;;;6.38;2.42;;;10.20;99.90;;;;;;5070962;28;20024;-52
2023/04/25 07:37:42;;;;;;;3.50;2.30;;;10.20;99.90;;;;;;5070609;28;20021;-56
2023/04/25 07:40:09;;;;;;;3.60;2.42;;;10.40;99.90;;;;;;5069516;28;20028;-53
2023/04/25 07:42:35;;;;;;;4.18;2.35;;;10.40;99.90;;;;;;5070679;28;20020;-52
2023/04/25 07:45:01;;;;;;;5.35;2.42;;;10.50;99.90;;;;;;5071256;28;20041;-55
2023/04/25 07:47:27;;;;;;;18.15;10.25;;;10.70;99.90;;;;;;5070997;28;20028;-52
2023/04/25 07:49:52;;;;;;;8.48;5.20;;;10.60;99.90;;;;;;5071155;28;20021;-51
2023/04/25 07:52:18;;;;;;;4.97;2.78;;;10.70;99.90;;;;;;5070859;28;20009;-50
2023/04/25 07:54:45;;;;;;;4.25;2.60;;;10.70;99.90;;;;;;5071039;28;20463;-56
2023/04/25 07:57:10;;;;;;;5.47;2.50;;;10.70;1.00;;;;;;5067849;28;20013;-56
2023/04/25 07:59:36;;;;;;;4.63;2.70;;;10.40;1.00;;;;;;5070434;28;20116;-55
2023/04/25 08:02:03;;;;;;;2.97;2.65;;;10.60;99.90;;;;;;5070843;28;20032;-55
2023/04/25 08:04:29;;;;;;;3.72;2.72;;;10.60;55.90;;;;;;5070911;28;20028;-54
2023/04/25 08:06:54;;;;;;;5.90;3.67;;;10.50;87.50;;;;;;5070666;28;20025;-52
2023/04/25 08:09:20;;;;;;;3.30;2.72;;;10.60;1.00;;;;;;5071002;28;20391;-55
2023/04/25 08:11:46;;;;;;;4.55;2.92;;;10.60;99.90;;;;;;5070792;28;20567;-54
2023/04/25 08:14:13;;;;;;;8.07;3.53;;;10.30;99.90;;;;;;5069787;28;20028;-57
2023/04/25 08:16:39;;;;;;;6.57;2.20;;;10.50;99.90;;;;;;5071080;28;20357;-56
2023/04/25 08:19:04;;;;;;;3.33;2.15;;;10.70;99.90;;;;;;5070958;28;20028;-55
2023/04/25 08:21:31;;;;;;;2.58;2.17;;;10.90;1.00;;;;;;5070817;28;20399;-56
2023/04/25 08:23:58;;;;;;;6.05;2.15;;;11.30;99.90;;;;;;5070766;28;20036;-57
2023/04/25 08:26:26;;;;;;;4.72;3.08;;;11.30;99.90;;;;;;5071847;28;20024;-58
2023/04/25 08:28:52;;;;;;;5.80;2.42;;;11.50;1.00;;;;;;5074311;28;20054;-59
2023/04/25 08:31:18;;;;;;;3.22;2.00;;;11.50;1.00;;;;;;5074350;28;20026;-60
2023/04/25 08:33:44;;;;;;;4.05;2.17;;;11.70;1.00;;;;;;5074236;28;20036;-59
2023/04/25 08:36:10;;;;;;;4.68;2.60;;;11.80;1.00;;;;;;5074386;28;20017;-56
2023/04/25 08:38:36;;;;;;;3.67;2.58;;;11.90;1.00;;;;;;5073937;28;20460;-55
2023/04/25 08:41:02;;;;;;;7.43;2.35;;;11.90;99.90;;;;;;5074569;28;20048;-59
2023/04/25 08:43:30;;;;;;;6.95;2.30;;;11.90;1.00;;;;;;5073968;28;20036;-58
2023/04/25 08:46:00;;;;;;;5.13;2.58;;;11.80;1.00;;;;;;5074104;28;20028;-57
2023/04/25 08:48:28;;;;;;;4.57;2.08;;;12.10;99.90;;;;;;5073987;28;20442;-58
2023/04/25 08:50:55;;;;;;;5.45;2.13;;;12.20;99.90;;;;;;5072471;28;20025;-58
2023/04/25 08:53:32;;;;;;;5.60;2.75;;;12.40;1.00;;;;;;5073935;28;20467;-58
2023/04/25 08:56:01;;;;;;;6.05;3.05;;;12.20;99.90;;;;;;5074128;28;20032;-58
2023/04/25 08:58:27;;;;;;;4.72;2.28;;;11.90;99.90;;;;;;5072452;28;20097;-58
2023/04/25 09:00:53;;;;;;;4.70;2.63;;;12.30;99.90;;;;;;5073945;28;20036;-58
2023/04/25 09:03:19;;;;;;;5.70;2.72;;;12.20;99.90;;;;;;5072836;28;20028;-58
2023/04/25 09:05:45;;;;;;;12.05;4.53;;;12.00;1.00;;;;;;5089252;28;20020;-59
2023/04/25 09:08:10;;;;;;;4.50;2.13;;;12.30;10.80;;;;;;5073713;28;20020;-58
2023/04/25 09:10:37;;;;;;;4.85;2.53;;;12.10;1.00;;;;;;5073463;28;20488;-58
2023/04/25 09:13:08;;;;;;;8.15;2.53;;;11.90;4.50;;;;;;5078230;28;20452;-58
2023/04/25 09:15:51;;;;;;;3.40;2.35;;;11.60;99.90;;;;;;5073287;28;20025;-59
2023/04/25 09:18:26;;;;;;;2.80;2.42;;;9.80;1.00;;;;;;5073225;28;20051;-58
2023/04/25 09:20:57;;;;;;;3.70;2.47;;;9.10;1.00;;;;;;5073493;28;20020;-58
2023/04/25 09:23:23;;;;;;;3.15;2.42;;;8.50;1.00;;;;;;5080723;28;20033;-58
2023/04/25 09:25:52;;;;;;;7.07;2.75;;;8.10;1.00;;;;;;5093049;28;20072;-59
2023/04/25 09:28:26;;;;;;;11.32;4.13;;;8.00;54.90;;;;;;5093170;28;20024;-59
2023/04/25 09:30:56;;;;;;;5.38;2.75;;;8.00;29.30;;;;;;5093345;28;20031;-59
2023/04/25 09:33:31;;;;;;;2.33;2.13;;;8.20;32.80;;;;;;5091523;28;20077;-59
2023/04/25 09:36:08;;;;;;;3.42;1.90;;;8.50;33.00;;;;;;5085962;28;20025;-59
2023/04/25 09:38:45;;;;;;;2.65;2.00;;;9.00;14.10;;;;;;5079750;28;20043;-59
2023/04/25 09:41:11;;;;;;;3.42;2.63;;;9.60;1.00;;;;;;5072606;28;20097;-59
2023/04/25 09:43:38;;;;;;;18.75;10.20;;;10.00;1.00;;;;;;5080962;28;20523;-58
2023/04/25 09:46:09;;;;;;;3.58;1.95;;;10.20;1.00;;;;;;5092744;28;20032;-59
2023/04/25 09:48:35;;;;;;;2.92;1.88;;;10.10;1.00;;;;;;5084998;28;20032;-59
2023/04/25 09:51:09;;;;;;;8.20;5.88;;;9.60;1.00;;;;;;5071994;28;20016;-59
2023/04/25 09:53:37;;;;;;;9.27;5.93;;;9.30;1.00;;;;;;5072165;28;20028;-59
2023/04/25 09:56:06;;;;;;;4.25;2.55;;;9.30;35.90;;;;;;5072787;28;20021;-59
2023/04/25 09:58:32;;;;;;;4.88;2.50;;;9.50;1.00;;;;;;5072403;28;20360;-59
2023/04/25 10:01:03;;;;;;;2.40;2.17;;;9.80;1.00;;;;;;5072808;28;20032;-59
2023/04/25 10:03:31;;;;;;;5.68;3.05;;;10.20;1.00;;;;;;5072533;28;20578;-59
2023/04/25 10:06:01;;;;;;;3.05;1.90;;;10.80;1.00;;;;;;5072380;28;20039;-58
2023/04/25 10:08:32;;;;;;;2.75;2.40;;;11.40;1.00;;;;;;5072267;28;20017;-59
2023/04/25 10:11:03;;;;;;;1.92;1.83;;;11.30;1.00;;;;;;5070476;28;20475;-58
2023/04/25 10:13:30;;;;;;;3.05;2.00;;;11.10;1.00;;;;;;5070405;28;20140;-56
2023/04/25 10:16:01;;;;;;;2.05;1.70;;;10.80;1.00;;;;;;5070327;28;20017;-57
2023/04/25 10:18:28;;;;;;;2.85;1.88;;;10.30;99.90;;;;;;5042176;28;20115;-58
2023/04/25 10:20:56;;;;;;;2.05;1.65;;;9.90;1.00;;;;;;5041502;28;20029;-59
2023/04/25 10:23:21;;;;;;;17.17;5.03;;;9.80;1.00;;;;;;5044391;28;20040;-59
2023/04/25 10:25:48;;;;;;;10.82;4.57;;;9.50;1.00;;;;;;5042516;28;20029;-56
2023/04/25 10:28:13;;;;;;;11.80;5.60;;;9.20;1.00;;;;;;5042979;28;20023;-59
2023/04/25 10:31:04;;;;;;;4.28;2.83;;;8.60;1.00;;;;;;5042538;28;20041;-59
2023/04/25 10:33:36;;;;;;;31.23;12.85;;;8.10;23.30;;;;;;5044988;28;20043;-58
2023/04/25 10:36:19;;;;;;;3.90;3.22;;;7.90;32.70;;;;;;5044417;28;20032;-58
2023/04/25 10:38:45;;;;;;;3.42;2.55;;;7.80;39.50;;;;;;5042588;28;20396;-56
2023/04/25 10:41:12;;;;;;;4.25;2.83;;;7.80;18.20;;;;;;5041703;28;20144;-58
2023/04/25 10:43:48;;;;;;;2.92;2.72;;;8.00;23.60;;;;;;5042728;28;20104;-57
2023/04/25 10:46:29;;;;;;;2.42;2.20;;;8.70;61.00;;;;;;5055763;28;20460;-59
2023/04/25 10:49:00;;;;;;;2.80;2.60;;;9.60;1.00;;;;;;5048462;28;20578;-59
2023/04/25 10:51:28;;;;;;;3.88;1.73;;;10.30;29.20;;;;;;5040188;28;20025;-58
2023/04/25 10:54:04;;;;;;;2.97;2.30;;;10.90;1.00;;;;;;5042601;28;20037;-59
2023/04/25 10:56:33;;;;;;;3.95;2.38;;;11.70;1.00;;;;;;5045814;28;20033;-59
2023/04/25 10:59:11;;;;;;;2.95;2.53;;;11.90;99.90;;;;;;5041258;28;20132;-58
2023/04/25 11:01:39;;;;;;;3.58;2.13;;;12.20;99.90;;;;;;5042529;28;20500;-57
2023/04/25 11:04:04;;;;;;;5.47;2.13;;;12.90;24.50;;;;;;5079016;28;20468;-58
2023/04/25 11:07:22;;;;;;;2.30;2.10;;;13.20;99.90;;;;;;5050781;28;20105;-58
2023/04/25 11:09:48;;;;;;;4.15;3.75;;;13.30;1.00;;;;;;5051960;28;20017;-58
2023/04/25 11:12:14;;;;;;;2.30;1.92;;;13.40;99.90;;;;;;5083773;28;20025;-57
2023/04/25 11:14:40;;;;;;;3.00;2.38;;;14.10;1.00;;;;;;5050703;28;20609;-59
2023/04/25 11:17:06;;;;;;;3.20;2.20;;;14.60;99.90;;;;;;5051605;28;20048;-59
2023/04/25 11:19:32;;;;;;;5.40;2.80;;;14.30;99.90;;;;;;5067922;28;20472;-59
2023/04/25 11:21:59;;;;;;;2.70;1.98;;;14.00;99.90;;;;;;5071499;28;20032;-58
2023/04/25 11:24:32;;;;;;;4.55;2.00;;;14.60;99.90;;;;;;5071483;28;20472;-58
2023/04/25 11:26:59;;;;;;;3.40;1.83;;;14.70;1.00;;;;;;5071473;28;20024;-58
2023/04/25 11:29:43;;;;;;;3.38;2.20;;;15.00;90.80;;;;;;5071370;28;20104;-59
2023/04/25 11:32:08;;;;;;;;;;;14.60;1.00;;;;;;5071936;28;20021;-59
2023/04/25 11:34:34;;;;;;;3.85;1.50;;;15.00;1.00;;;;;;5071313;28;19911;-59
2023/04/25 11:37:01;;;;;;;3.05;2.10;;;14.60;1.00;;;;;;5071123;28;20033;-59
2023/04/25 11:39:28;;;;;;;3.53;1.85;;;14.10;99.90;;;;;;5071328;28;20024;-60
2023/04/25 11:41:55;;;;;;;8.45;1.92;;;15.30;1.00;;;;;;5071149;28;20036;-59
2023/04/25 11:44:21;;;;;;;4.55;1.73;;;16.20;1.00;;;;;;5071148;28;20370;-59
2023/04/25 11:46:47;;;;;;;2.88;1.50;;;17.60;86.30;;;;;;5070988;28;20029;-59
2023/04/25 11:49:14;;;;;;;5.82;2.85;;;18.70;1.00;;;;;;5071180;28;20017;-59
2023/04/25 11:51:45;;;;;;;4.32;2.00;;;18.60;99.90;;;;;;5071446;28;20069;-59
2023/04/25 11:54:11;;;;;;;3.90;1.45;;;18.30;1.50;;;;;;5071295;28;20352;-60
2023/04/25 11:56:40;;;;;;;2.53;1.80;;;19.50;1.00;;;;;;5071355;28;20029;-60
2023/04/25 11:59:06;;;;;;;4.60;1.67;;;19.60;85.80;;;;;;5069761;28;20237;-59
2023/04/25 12:01:36;;;;;;;1.83;1.20;;;19.80;1.00;;;;;;5072420;28;20036;-59
2023/04/25 12:04:12;;;;;;;1.67;1.25;;;18.90;1.00;;;;;;5075028;28;20024;-59
2023/04/25 12:06:40;;;;;;;3.17;1.73;;;20.10;1.00;;;;;;5074906;28;20680;-59
2023/04/25 12:09:09;;;;;;;2.53;1.30;;;21.00;1.00;;;;;;5074717;28;20077;-59
2023/04/25 12:11:48;;;;;;;1.52;1.02;;;20.80;1.00;;;;;;5074477;28;20096;-59
2023/04/25 12:14:31;;;;;;;1.02;0.90;;;19.70;1.00;;;;;;5074735;28;20368;-59
2023/04/25 12:17:00;;;;;;;2.40;1.30;;;20.20;1.00;;;;;;5074909;28;20036;-59
2023/04/25 12:19:32;;;;;;;2.67;1.20;;;20.70;1.00;;;;;;5074467;28;20738;-58
2023/04/25 12:21:57;;;;;;;4.03;1.45;;;20.10;1.00;;;;;;5074523;28;20464;-58
2023/04/25 12:24:25;;;;;;;2.55;0.90;;;18.80;1.00;;;;;;5074537;28;20056;-58
2023/04/25 12:26:59;;;;;;;4.63;1.15;;;18.10;1.00;;;;;;5074029;28;20027;-59
2023/04/25 12:29:27;;;;;;;2.03;1.08;;;19.20;1.00;;;;;;5074304;28;20013;-59
2023/04/25 12:31:54;;;;;;;6.00;1.30;;;19.50;1.00;;;;;;5074254;28;20103;-58
2023/04/25 12:34:21;;;;;;;1.48;1.20;;;18.10;1.00;;;;;;5074141;28;20008;-59
2023/04/25 12:36:47;;;;;;;1.75;1.58;;;15.10;1.00;;;;;;5074144;28;20086;-59
2023/04/25 12:39:21;;;;;;;3.58;1.65;;;14.00;1.00;;;;;;5073918;28;20507;-58
2023/04/25 12:41:48;;;;;;;2.00;1.40;;;13.10;99.90;;;;;;5073626;28;20065;-59
2023/04/25 12:44:15;;;;;;;2.65;1.77;;;13.00;1.00;;;;;;5073974;28;20031;-59
2023/04/25 12:46:41;;;;;;;1.38;1.30;;;13.00;1.00;;;;;;5074204;28;20463;-58
2023/04/25 12:49:08;;;;;;;1.92;1.20;;;13.90;92.00;;;;;;5073304;28;20025;-59
2023/04/25 12:51:34;;;;;;;2.05;1.30;;;15.80;1.00;;;;;;5073000;28;20016;-58
2023/04/25 12:54:00;;;;;;;1.92;1.15;;;16.10;89.60;;;;;;5072919;28;20097;-58